createdAt,value
2022-12-18T00:00:13.869Z,101680.59
2022-12-18T00:03:37.792Z,101686.16
2022-12-18T00:06:40.968Z,101701.22
2022-12-18T00:09:44.346Z,101704.84
2022-12-18T00:12:46.951Z,101707.16
2022-12-18T00:15:49.703Z,101719.34
2022-12-18T00:18:54.984Z,101727.66
2022-12-18T00:21:59.214Z,101727.91
2022-12-18T00:25:01.943Z,101735.00
2022-12-18T00:28:05.282Z,101733.47
2022-12-18T00:31:11.070Z,101740.88
2022-12-18T00:34:14.539Z,101743.41
2022-12-18T00:37:20.282Z,101752.44
2022-12-18T00:40:26.973Z,101750.94
2022-12-18T00:43:29.846Z,101759.37
2022-12-18T00:46:33.177Z,101756.88
2022-12-18T00:49:35.936Z,101757.94
2022-12-18T00:52:38.786Z,101769.84
2022-12-18T00:55:42.324Z,101763.09
2022-12-18T00:58:45.289Z,101774.31
2022-12-18T01:01:48.875Z,101770.97
2022-12-18T01:04:51.781Z,101780.47
2022-12-18T01:07:56.686Z,101791.78
2022-12-18T01:10:59.422Z,101790.25
2022-12-18T01:14:02.205Z,101794.88
2022-12-18T01:17:05.609Z,101789.28
2022-12-18T01:20:10.350Z,101797.41
2022-12-18T01:23:13.071Z,101801.84
2022-12-18T01:26:17.053Z,101806.16
2022-12-18T01:29:20.003Z,101814.47
2022-12-18T01:32:23.032Z,101808.41
2022-12-18T01:35:26.258Z,101806.13
2022-12-18T01:38:29.626Z,101806.81
2022-12-18T01:41:51.922Z,101810.22
2022-12-18T01:45:02.690Z,101820.13
2022-12-18T01:48:09.907Z,101819.09
2022-12-18T01:51:13.762Z,101825.09
2022-12-18T01:54:17.067Z,101820.19
2022-12-18T01:57:20.493Z,101825.31
2022-12-18T02:00:24.724Z,101828.81
2022-12-18T02:03:27.583Z,101834.84
2022-12-18T02:06:42.229Z,101835.28
2022-12-18T02:09:56.434Z,101835.44
2022-12-18T02:13:17.252Z,101840.97
2022-12-18T02:16:37.738Z,101849.41
2022-12-18T02:19:59.042Z,101853.53
2022-12-18T02:23:26.650Z,101860.31
2022-12-18T02:26:38.847Z,101861.91
2022-12-18T02:29:58.925Z,101855.41
2022-12-18T02:33:07.391Z,101854.53
2022-12-18T02:36:11.988Z,101861.81
2022-12-18T02:39:16.971Z,101868.53
2022-12-18T02:42:20.927Z,101875.13
2022-12-18T02:45:24.342Z,101877.91
2022-12-18T02:48:34.994Z,101882.41
2022-12-18T02:51:51.599Z,101878.03
2022-12-18T02:55:11.590Z,101878.75
2022-12-18T02:58:19.786Z,101892.25
2022-12-18T03:01:41.079Z,101887.72
2022-12-18T03:04:48.626Z,101899.69
2022-12-18T03:08:09.410Z,101904.31
2022-12-18T03:11:14.954Z,101908.06
2022-12-18T03:14:21.614Z,101907.38
2022-12-18T03:17:28.797Z,101915.72
2022-12-18T03:20:35.227Z,101920.69
2022-12-18T03:23:44.047Z,101916.06
2022-12-18T03:26:50.401Z,101907.38
2022-12-18T03:30:08.428Z,101927.38
2022-12-18T03:33:54.021Z,101928.56
2022-12-18T03:36:58.769Z,101933.84
2022-12-18T03:40:01.294Z,101944.16
2022-12-18T03:43:19.417Z,101941.09
2022-12-18T03:46:31.818Z,101948.47
2022-12-18T03:49:34.785Z,101958.94
2022-12-18T03:52:47.049Z,101955.16
2022-12-18T03:55:53.161Z,101951.44
2022-12-18T03:58:57.710Z,101953.25
2022-12-18T04:02:04.458Z,101954.41
2022-12-18T04:05:10.047Z,101945.63
2022-12-18T04:08:14.247Z,101955.56
2022-12-18T04:11:18.046Z,101965.87
2022-12-18T04:14:21.175Z,101970.66
2022-12-18T04:17:24.830Z,101970.66
2022-12-18T04:20:27.961Z,101976.63
2022-12-18T04:23:30.802Z,101972.34
2022-12-18T04:26:33.806Z,101966.81
2022-12-18T04:29:37.022Z,101975.13
2022-12-18T04:32:39.848Z,101976.06
2022-12-18T04:35:44.338Z,101972.59
2022-12-18T04:38:47.144Z,101980.38
2022-12-18T04:41:50.836Z,101983.50
2022-12-18T04:44:53.977Z,101996.06
2022-12-18T04:48:01.799Z,101999.94
2022-12-18T04:51:06.100Z,101998.88
2022-12-18T04:54:08.801Z,102002.75
2022-12-18T04:57:11.559Z,102009.37
2022-12-18T05:00:14.717Z,102015.09
2022-12-18T05:03:17.512Z,102018.28
2022-12-18T05:06:20.339Z,102018.62
2022-12-18T05:09:24.320Z,102024.22
2022-12-18T05:12:27.134Z,102028.84
2022-12-18T05:15:33.590Z,102021.06
2022-12-18T05:18:36.547Z,102031.00
2022-12-18T05:21:39.262Z,102034.56
2022-12-18T05:24:42.127Z,102028.75
2022-12-18T05:27:45.897Z,102030.00
2022-12-18T05:30:50.709Z,102042.09
2022-12-18T05:33:53.437Z,102042.09
2022-12-18T05:36:56.151Z,102046.22
2022-12-18T05:39:58.958Z,102052.31
2022-12-18T05:43:01.703Z,102054.97
2022-12-18T05:46:09.370Z,102053.72
2022-12-18T05:49:12.148Z,102059.56
2022-12-18T05:52:14.970Z,102060.03
2022-12-18T05:55:17.874Z,102072.97
2022-12-18T05:58:20.594Z,102076.00
2022-12-18T06:01:27.425Z,102075.28
2022-12-18T06:04:30.604Z,102074.41
2022-12-18T06:07:33.271Z,102085.34
2022-12-18T06:10:36.318Z,102084.28
2022-12-18T06:13:40.016Z,102088.50
2022-12-18T06:16:43.283Z,102091.34
2022-12-18T06:19:45.735Z,102092.97
2022-12-18T06:22:48.786Z,102088.53
2022-12-18T06:25:52.554Z,102094.13
2022-12-18T06:28:55.709Z,102090.75
2022-12-18T06:31:58.146Z,102109.94
2022-12-18T06:35:01.591Z,102123.25
2022-12-18T06:38:04.164Z,102117.47
2022-12-18T06:41:11.626Z,102112.00
2022-12-18T06:44:14.085Z,102127.31
2022-12-18T06:47:17.116Z,102139.31
2022-12-18T06:50:19.534Z,102136.41
2022-12-18T06:53:22.718Z,102140.28
2022-12-18T06:56:25.158Z,102143.09
2022-12-18T06:59:28.164Z,102152.22
2022-12-18T07:02:31.448Z,102161.66
2022-12-18T07:05:35.021Z,102168.22
2022-12-18T07:08:37.515Z,102165.47
2022-12-18T07:11:40.517Z,102163.06
2022-12-18T07:14:43.005Z,102170.06
2022-12-18T07:17:46.003Z,102174.94
2022-12-18T07:20:48.434Z,102179.84
2022-12-18T07:23:52.243Z,102182.69
2022-12-18T07:26:54.745Z,102190.38
2022-12-18T07:29:58.243Z,102194.47
2022-12-18T07:33:00.745Z,102204.03
2022-12-18T07:36:06.231Z,102212.56
2022-12-18T07:39:08.967Z,102219.81
2022-12-18T07:42:30.159Z,102223.25
2022-12-18T07:45:32.680Z,102224.19
2022-12-18T07:48:35.827Z,102221.69
2022-12-18T07:51:38.304Z,102229.22
2022-12-18T07:54:41.481Z,102233.63
2022-12-18T07:57:54.158Z,102240.09
2022-12-18T08:01:06.456Z,102236.87
2022-12-18T08:04:09.310Z,102252.97
2022-12-18T08:07:12.051Z,102250.47
2022-12-18T08:10:15.157Z,102252.09
2022-12-18T08:13:17.902Z,102256.69
2022-12-18T08:16:22.072Z,102266.56
2022-12-18T08:19:24.982Z,102264.28
2022-12-18T08:22:27.738Z,102261.16
2022-12-18T08:25:30.661Z,102260.84
2022-12-18T08:28:34.162Z,102260.22
2022-12-18T08:31:36.875Z,102272.72
2022-12-18T08:34:39.563Z,102269.09
2022-12-18T08:37:42.339Z,102264.69
2022-12-18T08:40:45.393Z,102263.22
2022-12-18T08:44:06.740Z,102264.66
2022-12-18T08:47:09.638Z,102255.09
2022-12-18T08:50:13.288Z,102268.34
2022-12-18T08:53:16.038Z,102267.31
2022-12-18T08:56:21.643Z,102272.78
2022-12-18T08:59:24.671Z,102266.28
2022-12-18T09:02:27.725Z,102274.41
2022-12-18T09:05:31.274Z,102279.47
2022-12-18T09:08:38.110Z,102281.16
2022-12-18T09:11:41.160Z,102281.84
2022-12-18T09:14:44.002Z,102275.97
2022-12-18T09:17:46.854Z,102278.31
2022-12-18T09:20:51.323Z,102290.19
2022-12-18T09:23:56.145Z,102278.53
2022-12-18T09:26:58.993Z,102272.78
2022-12-18T09:30:02.376Z,102267.16
2022-12-18T09:33:05.192Z,102269.53
2022-12-18T09:36:12.372Z,102268.16
2022-12-18T09:39:15.274Z,102269.88
2022-12-18T09:42:23.140Z,102271.72
2022-12-18T09:45:26.466Z,102261.56
2022-12-18T09:48:33.663Z,102257.50
2022-12-18T09:51:43.756Z,102271.13
2022-12-18T09:54:57.483Z,102259.06
2022-12-18T09:58:24.042Z,102265.78
2022-12-18T10:01:38.980Z,102269.38
2022-12-18T10:04:58.127Z,102265.47
2022-12-18T10:08:00.466Z,102264.41
2022-12-18T10:11:31.714Z,102260.25
2022-12-18T10:14:51.823Z,102259.38
2022-12-18T10:18:23.665Z,102248.94
2022-12-18T10:21:40.438Z,102249.91
2022-12-18T10:24:48.775Z,102247.97
2022-12-18T10:27:58.786Z,102254.38
2022-12-18T10:31:02.146Z,102249.78
2022-12-18T10:34:04.539Z,102241.31
2022-12-18T10:37:16.567Z,102238.69
2022-12-18T10:40:22.558Z,102248.56
2022-12-18T10:43:32.770Z,102235.59
2022-12-18T10:46:35.809Z,102239.34
2022-12-18T10:49:53.503Z,102242.72
2022-12-18T10:52:59.190Z,102232.00
2022-12-18T10:56:05.180Z,102239.56
2022-12-18T10:59:10.573Z,102236.34
2022-12-18T11:02:28.949Z,102229.87
2022-12-18T11:05:37.821Z,102233.50
2022-12-18T11:08:43.910Z,102231.69
2022-12-18T11:11:55.755Z,102224.84
2022-12-18T11:15:01.024Z,102223.97
2022-12-18T11:18:03.610Z,102221.78
2022-12-18T11:21:12.033Z,102222.12
2022-12-18T11:24:35.740Z,102221.91
2022-12-18T11:27:40.844Z,102220.19
2022-12-18T11:30:43.294Z,102225.81
2022-12-18T11:34:27.020Z,102235.50
2022-12-18T11:37:20.329Z,102219.72
2022-12-18T11:40:37.854Z,102223.41
2022-12-18T11:43:56.828Z,102215.84
2022-12-18T11:47:37.628Z,102214.06
2022-12-18T11:50:54.903Z,102209.13
2022-12-18T11:53:58.377Z,102207.50
2022-12-18T11:57:19.677Z,102200.94
2022-12-18T12:00:24.326Z,102202.91
2022-12-18T12:03:51.617Z,102195.38
2022-12-18T12:07:22.419Z,102197.03
2022-12-18T12:11:05.051Z,102192.41
2022-12-18T12:14:17.574Z,102190.06
2022-12-18T12:17:39.024Z,102189.75
2022-12-18T12:20:57.715Z,102198.00
2022-12-18T12:24:10.899Z,102188.09
2022-12-18T12:27:16.763Z,102185.94
2022-12-18T12:30:27.206Z,102185.16
2022-12-18T12:33:47.071Z,102185.38
2022-12-18T12:37:00.988Z,102194.03
2022-12-18T12:40:26.815Z,102190.34
2022-12-18T12:47:26.484Z,102190.72
2022-12-18T12:50:34.731Z,102204.03
2022-12-18T12:53:40.170Z,102215.09
2022-12-18T12:56:59.048Z,102222.59
2022-12-18T13:00:14.025Z,102231.88
2022-12-18T13:03:30.435Z,102242.72
2022-12-18T13:06:58.226Z,102236.44
2022-12-18T13:10:23.811Z,102239.87
2022-12-18T13:13:50.754Z,102243.75
2022-12-18T13:17:22.806Z,102253.59
2022-12-18T13:20:35.587Z,102257.06
2022-12-18T13:23:39.132Z,102260.84
2022-12-18T13:26:42.523Z,102259.94
2022-12-18T13:29:47.513Z,102264.25
2022-12-18T13:33:16.304Z,102273.22
2022-12-18T13:36:36.152Z,102272.88
2022-12-18T13:39:39.152Z,102267.19
2022-12-18T13:43:02.607Z,102275.66
2022-12-18T13:46:23.744Z,102278.09
2022-12-18T13:49:44.832Z,102280.87
2022-12-18T13:52:47.665Z,102282.44
2022-12-18T13:55:51.590Z,102295.34
2022-12-18T13:59:13.392Z,102294.16
2022-12-18T14:02:22.134Z,102295.34
2022-12-18T14:05:36.646Z,102291.66
2022-12-18T14:08:44.546Z,102293.59
2022-12-18T14:11:50.572Z,102299.84
2022-12-18T14:14:55.318Z,102302.31
2022-12-18T14:18:17.246Z,102300.53
2022-12-18T14:21:30.680Z,102302.84
2022-12-18T14:24:33.881Z,102305.41
2022-12-18T14:27:39.291Z,102301.47
2022-12-18T14:30:44.816Z,102299.97
2022-12-18T14:33:48.133Z,102306.34
2022-12-18T14:36:56.307Z,102309.41
2022-12-18T14:40:07.301Z,102319.84
2022-12-18T14:43:14.237Z,102320.63
2022-12-18T14:46:28.482Z,102327.16
2022-12-18T14:49:35.420Z,102325.50
2022-12-18T14:52:39.676Z,102336.72
2022-12-18T14:55:45.974Z,102345.66
2022-12-18T14:59:00.381Z,102350.81
2022-12-18T15:02:09.482Z,102348.97
2022-12-18T15:05:14.138Z,102350.34
2022-12-18T15:08:46.390Z,102349.72
2022-12-18T15:11:49.040Z,102361.25
2022-12-18T15:14:52.274Z,102366.72
2022-12-18T15:18:00.323Z,102370.34
2022-12-18T15:21:11.266Z,102369.28
2022-12-18T15:24:26.148Z,102378.94
2022-12-18T15:27:34.411Z,102370.75
2022-12-18T15:30:37.082Z,102375.75
2022-12-18T15:33:47.187Z,102377.88
2022-12-18T15:36:51.587Z,102387.56
2022-12-18T15:39:54.633Z,102394.16
2022-12-18T15:43:16.404Z,102389.25
2022-12-18T15:46:24.559Z,102396.37
2022-12-18T15:49:27.100Z,102405.75
2022-12-18T15:52:30.210Z,102410.44
2022-12-18T15:55:51.152Z,102417.13
2022-12-18T15:58:54.850Z,102417.66
2022-12-18T16:01:57.714Z,102429.66
2022-12-18T16:05:00.882Z,102432.28
2022-12-18T16:08:03.484Z,102429.84
2022-12-18T16:11:06.929Z,102427.47
2022-12-18T16:14:19.736Z,102439.06
2022-12-18T16:17:23.003Z,102435.53
2022-12-18T16:20:25.500Z,102438.53
2022-12-18T16:23:29.063Z,102438.22
2022-12-18T16:26:33.140Z,102445.44
2022-12-18T16:29:36.189Z,102453.28
2022-12-18T16:32:38.648Z,102456.59
2022-12-18T16:35:41.810Z,102459.75
2022-12-18T16:38:45.402Z,102457.59
2022-12-18T16:41:48.835Z,102459.09
2022-12-18T16:44:51.375Z,102460.00
2022-12-18T16:47:56.747Z,102464.09
2022-12-18T16:51:04.727Z,102471.81
2022-12-18T16:54:11.730Z,102479.03
2022-12-18T16:57:19.537Z,102477.78
2022-12-18T17:00:24.150Z,102475.50
2022-12-18T17:03:28.125Z,102474.66
2022-12-18T17:06:33.823Z,102475.50
2022-12-18T17:09:38.257Z,102469.88
2022-12-18T17:12:41.455Z,102458.91
2022-12-18T17:15:44.038Z,102459.50
2022-12-18T17:18:47.202Z,102463.72
2022-12-18T17:21:51.221Z,102460.81
2022-12-18T17:24:54.284Z,102457.00
2022-12-18T17:27:56.776Z,102454.88
2022-12-18T17:30:59.907Z,102459.91
2022-12-18T17:34:03.582Z,102458.16
2022-12-18T17:37:06.773Z,102458.66
2022-12-18T17:40:09.972Z,102467.34
2022-12-18T17:43:13.198Z,102464.09
2022-12-18T17:46:15.694Z,102469.50
2022-12-18T17:49:19.032Z,102473.69
2022-12-18T17:52:21.571Z,102481.22
2022-12-18T17:55:25.389Z,102482.16
2022-12-18T17:58:29.239Z,102479.06
2022-12-18T18:01:32.805Z,102476.00
2022-12-18T18:04:35.644Z,102472.53
2022-12-18T18:07:39.667Z,102475.81
2022-12-18T18:10:42.503Z,102470.28
2022-12-18T18:14:04.499Z,102478.38
2022-12-18T18:17:07.347Z,102471.66
2022-12-18T18:20:10.755Z,102485.47
2022-12-18T18:23:13.545Z,102490.25
2022-12-18T18:26:16.345Z,102488.44
2022-12-18T18:29:23.594Z,102497.78
2022-12-18T18:32:28.666Z,102486.63
2022-12-18T18:35:53.440Z,102478.91
2022-12-18T18:38:54.709Z,102488.84
2022-12-18T18:41:57.589Z,102505.34
2022-12-18T18:45:00.353Z,102505.66
2022-12-18T18:48:03.174Z,102511.13
2022-12-18T18:51:21.086Z,102506.53
2022-12-18T18:54:25.684Z,102504.22
2022-12-18T18:57:30.465Z,102517.59
2022-12-18T19:00:33.583Z,102522.56
2022-12-18T19:03:37.874Z,102519.81
2022-12-18T19:06:42.793Z,102526.44
2022-12-18T19:09:51.876Z,102525.19
2022-12-18T19:13:13.300Z,102525.19
2022-12-18T19:16:16.099Z,102532.88
2022-12-18T19:19:21.215Z,102536.59
2022-12-18T19:22:24.472Z,102533.97
2022-12-18T19:25:38.325Z,102539.34
2022-12-18T19:28:44.665Z,102550.91
2022-12-18T19:31:47.873Z,102547.50
2022-12-18T19:34:50.753Z,102550.28
2022-12-18T19:37:53.593Z,102560.22
2022-12-18T19:40:56.492Z,102560.00
2022-12-18T19:43:59.307Z,102564.72
2022-12-18T19:47:02.093Z,102555.94
2022-12-18T19:50:05.256Z,102561.84
2022-12-18T19:53:08.720Z,102559.63
2022-12-18T19:56:15.741Z,102570.50
2022-12-18T19:59:18.603Z,102577.84
2022-12-18T20:02:21.712Z,102580.94
2022-12-18T20:05:26.353Z,102579.16
2022-12-18T20:08:29.639Z,102570.91
2022-12-18T20:11:36.364Z,102580.59
2022-12-18T20:14:44.730Z,102579.16
2022-12-18T20:17:48.053Z,102586.84
2022-12-18T20:20:50.769Z,102586.50
2022-12-18T20:23:55.945Z,102589.47
2022-12-18T20:26:58.508Z,102597.13
2022-12-18T20:30:01.551Z,102600.28
2022-12-18T20:33:04.078Z,102595.75
2022-12-18T20:36:09.108Z,102595.69
2022-12-18T20:39:12.462Z,102601.91
2022-12-18T20:42:17.373Z,102605.00
2022-12-18T20:45:19.849Z,102600.81
2022-12-18T20:48:26.606Z,102603.25
2022-12-18T20:51:30.632Z,102599.03
2022-12-18T20:54:33.730Z,102610.41
2022-12-18T20:57:38.379Z,102616.63
2022-12-18T21:00:41.478Z,102604.94
2022-12-18T21:03:46.155Z,102607.84
2022-12-18T21:06:54.250Z,102619.56
2022-12-18T21:10:05.463Z,102624.53
2022-12-18T21:13:08.808Z,102624.00
2022-12-18T21:16:13.928Z,102631.34
2022-12-18T21:19:23.174Z,102628.78
2022-12-18T21:22:27.076Z,102633.19
2022-12-18T21:25:30.554Z,102632.84
2022-12-18T21:28:33.019Z,102627.75
2022-12-18T21:31:39.674Z,102629.59
2022-12-18T21:34:47.489Z,102619.34
2022-12-18T21:37:51.172Z,102623.31
2022-12-18T21:40:53.620Z,102623.47
2022-12-18T21:44:06.359Z,102619.31
2022-12-18T21:47:21.982Z,102620.25
2022-12-18T21:50:25.613Z,102607.06
2022-12-18T21:53:28.290Z,102610.81
2022-12-18T21:56:56.756Z,102610.63
2022-12-18T21:59:59.455Z,102612.50
2022-12-18T22:03:18.146Z,102614.34
2022-12-18T22:06:22.482Z,102615.69
2022-12-18T22:09:26.369Z,102603.41
2022-12-18T22:12:35.467Z,102613.13
2022-12-18T22:15:38.696Z,102609.97
2022-12-18T22:18:41.542Z,102618.03
2022-12-18T22:21:46.887Z,102619.91
2022-12-18T22:24:49.611Z,102610.22
2022-12-18T22:28:11.276Z,102614.25
2022-12-18T22:31:14.031Z,102617.00
2022-12-18T22:34:22.011Z,102623.41
2022-12-18T22:37:26.006Z,102620.66
2022-12-18T22:40:29.385Z,102621.75
2022-12-18T22:43:33.417Z,102626.34
2022-12-18T22:46:39.122Z,102630.56
2022-12-18T22:49:41.938Z,102628.91
2022-12-18T22:52:44.651Z,102626.53
2022-12-18T22:55:47.427Z,102630.16
2022-12-18T22:58:51.486Z,102637.34
2022-12-18T23:01:58.613Z,102633.13
2022-12-18T23:05:02.175Z,102637.69
2022-12-18T23:08:05.139Z,102637.72
2022-12-18T23:11:08.862Z,102641.38
2022-12-18T23:14:12.750Z,102637.69
2022-12-18T23:17:15.473Z,102635.16
2022-12-18T23:20:18.223Z,102639.91
2022-12-18T23:23:20.942Z,102636.97
2022-12-18T23:26:25.425Z,102641.19
2022-12-18T23:29:28.287Z,102644.28
2022-12-18T23:32:31.095Z,102647.94
2022-12-18T23:35:36.139Z,102622.69
2022-12-18T23:38:39.867Z,102632.97
2022-12-18T23:41:42.636Z,102636.44
2022-12-18T23:44:45.417Z,102634.97
2022-12-18T23:47:50.882Z,102636.25
2022-12-18T23:50:54.110Z,102630.03
2022-12-18T23:53:58.764Z,102638.62
2022-12-18T23:57:01.856Z,102645.41
